Time;durP1;ratioP1;P1;durP2;ratioP2;P2;SDS_P1;SDS_P2;PMS_P1;PMS_P2;Temp;Humidity;BMP_temperature;BMP_pressure;BME280_temperature;BME280_humidity;BME280_pressure;Samples;Min_cycle;Max_cycle;Signal;HPM_P1;HPM_P2
2022/05/11 00:00:13;;;;;;;;;;;21.60;60.70;;;;;;5050052;28;19932;-80
2022/05/11 00:02:40;;;;;;;;;;;21.50;60.70;;;;;;5055309;28;20001;-80
2022/05/11 00:05:07;;;;;;;;;;;21.50;60.80;;;;;;5058927;28;19928;-80
2022/05/11 00:07:33;;;;;;;;;;;21.50;60.90;;;;;;5052813;28;20036;-80
2022/05/11 00:10:00;;;;;;;;;;;21.40;61.00;;;;;;5057024;28;19935;-79
2022/05/11 00:12:27;;;;;;;;;;;21.40;61.00;;;;;;5051540;28;19928;-80
2022/05/11 00:14:55;;;;;;;;;;;21.40;61.10;;;;;;5055823;28;20432;-80
2022/05/11 00:17:21;;;;;;;;;;;21.30;61.10;;;;;;5053880;28;19929;-79
2022/05/11 00:19:48;;;;;;;;;;;21.30;61.20;;;;;;5057596;28;19928;-80
2022/05/11 00:22:14;;;;;;;;;;;21.30;61.30;;;;;;5061169;28;19929;-79
2022/05/11 00:24:41;;;;;;;;;;;21.30;61.40;;;;;;5054766;28;19929;-79
2022/05/11 00:27:07;;;;;;;;;;;21.20;61.40;;;;;;5058082;28;19939;-79
2022/05/11 00:29:34;;;;;;;;;;;21.20;61.60;;;;;;5049478;28;20582;-80
2022/05/11 00:32:02;;;;;;;;;;;21.10;61.50;;;;;;5048815;28;19929;-80
2022/05/11 00:34:29;;;;;;;;;;;21.10;61.60;;;;;;5060711;28;19932;-79
2022/05/11 00:36:55;;;;;;;;;;;21.10;61.70;;;;;;5057743;28;19928;-80
2022/05/11 00:39:22;;;;;;;;;;;21.10;61.80;;;;;;5056886;28;19936;-80
2022/05/11 00:41:48;;;;;;;;;;;21.00;61.80;;;;;;5058904;28;19929;-80
2022/05/11 00:44:16;;;;;;;;;;;21.00;61.80;;;;;;5056372;28;19928;-80
2022/05/11 00:46:46;;;;;;;;;;;21.00;61.90;;;;;;5055375;28;20623;-79
2022/05/11 00:52:02;;;;;;;;;;;20.90;62.10;;;;;;5056284;28;19936;-80
2022/05/11 00:54:30;;;;;;;;;;;20.90;62.10;;;;;;5059343;28;20417;-80
2022/05/11 00:56:59;;;;;;;;;;;20.80;62.20;;;;;;5050707;28;20306;-80
2022/05/11 00:59:28;;;;;;;;;;;20.80;62.30;;;;;;5057216;28;19992;-80
2022/05/11 01:01:58;;;;;;;;;;;20.80;62.30;;;;;;5059478;28;19954;-80
2022/05/11 01:04:26;;;;;;;;;;;20.70;62.40;;;;;;5056384;28;20302;-80
2022/05/11 01:06:53;;;;;;;;;;;20.70;62.40;;;;;;5050196;28;19940;-80
2022/05/11 01:09:19;;;;;;;;;;;20.70;62.40;;;;;;5057219;28;19925;-80
2022/05/11 01:11:48;;;;;;;;;;;20.70;62.50;;;;;;5055213;28;19939;-80
2022/05/11 01:14:16;;;;;;;;;;;20.60;62.60;;;;;;5055917;28;19936;-80
2022/05/11 01:16:43;;;;;;;;;;;20.60;62.60;;;;;;5050563;28;19933;-80
2022/05/11 01:19:13;;;;;;;;;;;20.60;62.70;;;;;;5056804;28;19928;-80
2022/05/11 01:21:43;;;;;;;;;;;20.60;62.80;;;;;;5054419;28;20515;-79
2022/05/11 01:24:24;;;;;;;;;;;20.60;62.80;;;;;;5057228;28;20040;-80
2022/05/11 01:26:50;;;;;;;;;;;20.50;62.80;;;;;;5057168;28;19933;-80
2022/05/11 01:29:17;;;;;;;;;;;20.50;62.80;;;;;;5055568;28;19928;-80
2022/05/11 01:31:43;;;;;;;;;;;20.50;62.90;;;;;;5058073;28;19944;-79
2022/05/11 01:34:11;;;;;;;;;;;20.40;62.80;;;;;;5059649;28;19929;-79
2022/05/11 01:36:37;;;;;;;;;;;20.40;62.90;;;;;;5057940;28;19928;-79
2022/05/11 01:39:05;;;;;;;;;;;20.40;63.00;;;;;;5063596;28;19940;-80
2022/05/11 01:41:34;;;;;;;;;;;20.40;63.00;;;;;;5064334;28;19936;-80
2022/05/11 01:44:04;;;;;;;;;;;20.30;63.00;;;;;;5057615;28;20376;-79
2022/05/11 01:46:31;;;;;;;;;;;20.30;63.00;;;;;;5051860;28;20655;-80
2022/05/11 01:48:57;;;;;;;;;;;20.30;63.10;;;;;;5053321;28;19928;-79
2022/05/11 01:51:24;;;;;;;;;;;20.30;63.10;;;;;;5060097;28;19932;-79
2022/05/11 01:53:51;;;;;;;;;;;20.20;63.10;;;;;;5056496;28;19928;-79
2022/05/11 01:56:20;;;;;;;;;;;20.20;63.20;;;;;;5058247;28;20715;-80
2022/05/11 01:58:48;;;;;;;;;;;20.10;63.20;;;;;;5060530;28;20016;-79
2022/05/11 02:01:17;;;;;;;;;;;20.10;63.20;;;;;;5052235;28;20381;-80
2022/05/11 02:03:43;;;;;;;;;;;20.10;63.30;;;;;;5064889;28;19933;-80
2022/05/11 02:08:54;;;;;;;;;;;20.10;63.50;;;;;;5064041;28;19983;-80
2022/05/11 02:11:21;;;;;;;;;;;20.00;63.50;;;;;;5057017;28;19928;-79
2022/05/11 02:13:49;;;;;;;;;;;20.00;63.50;;;;;;5055844;28;20024;-80
2022/05/11 02:16:16;;;;;;;;;;;20.00;63.50;;;;;;5054177;28;19936;-79
2022/05/11 02:18:43;;;;;;;;;;;19.90;63.60;;;;;;5056880;28;19929;-79
2022/05/11 02:21:10;;;;;;;;;;;19.90;63.70;;;;;;5058369;28;19972;-80
2022/05/11 02:23:37;;;;;;;;;;;19.90;63.70;;;;;;5061114;28;19970;-80
2022/05/11 02:26:04;;;;;;;;;;;19.90;63.80;;;;;;5048707;28;20286;-80
2022/05/11 02:28:30;;;;;;;;;;;19.90;63.90;;;;;;5052656;28;19937;-80
2022/05/11 02:31:00;;;;;;;;;;;19.90;64.00;;;;;;5058708;28;19925;-79
2022/05/11 02:33:27;;;;;;;;;;;19.90;64.10;;;;;;5056816;28;19929;-80
2022/05/11 02:35:54;;;;;;;;;;;19.80;64.10;;;;;;5053650;28;19933;-79
2022/05/11 02:38:22;;;;;;;;;;;19.80;64.20;;;;;;5052309;28;20007;-81
2022/05/11 02:40:49;;;;;;;;;;;19.70;64.20;;;;;;5054052;28;19929;-81
2022/05/11 02:43:15;;;;;;;;;;;19.70;64.30;;;;;;5057923;28;19935;-81
2022/05/11 02:45:42;;;;;;;;;;;19.70;64.30;;;;;;5060297;28;19936;-79
2022/05/11 02:48:12;;;;;;;;;;;19.60;64.30;;;;;;5056717;28;19928;-79
2022/05/11 02:50:40;;;;;;;;;;;19.60;64.40;;;;;;5057226;28;19929;-80
2022/05/11 02:53:07;;;;;;;;;;;19.60;64.50;;;;;;5052799;28;19932;-80
2022/05/11 02:55:35;;;;;;;;;;;19.60;64.50;;;;;;5053850;28;19933;-80
2022/05/11 02:58:02;;;;;;;;;;;19.50;64.60;;;;;;5055723;28;20296;-80
2022/05/11 03:00:28;;;;;;;;;;;19.50;64.60;;;;;;5061480;28;19929;-79
2022/05/11 03:02:55;;;;;;;;;;;19.50;64.70;;;;;;5055635;28;19928;-80
2022/05/11 03:05:23;;;;;;;;;;;19.50;64.80;;;;;;5060431;28;19928;-79
2022/05/11 03:07:50;;;;;;;;;;;19.50;64.90;;;;;;5062361;28;19928;-80
2022/05/11 03:10:17;;;;;;;;;;;19.40;64.90;;;;;;5061828;28;19959;-80
2022/05/11 03:12:43;;;;;;;;;;;19.40;64.90;;;;;;5058076;28;20791;-80
2022/05/11 03:15:10;;;;;;;;;;;19.40;65.00;;;;;;5054023;28;20451;-81
2022/05/11 03:17:37;;;;;;;;;;;19.40;65.00;;;;;;5048385;28;19935;-80
2022/05/11 03:20:04;;;;;;;;;;;19.30;65.00;;;;;;5052208;28;19932;-81
2022/05/11 03:22:32;;;;;;;;;;;19.30;65.10;;;;;;5060618;28;19928;-80
2022/05/11 03:24:59;;;;;;;;;;;19.30;65.20;;;;;;5052082;28;20339;-80
2022/05/11 03:27:25;;;;;;;;;;;19.20;65.20;;;;;;5054619;28;19929;-80
2022/05/11 03:29:53;;;;;;;;;;;19.20;65.30;;;;;;5054708;28;19928;-80
2022/05/11 03:35:05;;;;;;;;;;;19.20;65.40;;;;;;5062732;28;20657;-80
2022/05/11 03:37:34;;;;;;;;;;;19.10;65.40;;;;;;5062009;28;20467;-81
2022/05/11 03:40:03;;;;;;;;;;;19.10;65.50;;;;;;5056650;28;20761;-80
2022/05/11 03:42:31;;;;;;;;;;;19.10;65.60;;;;;;5045298;28;20592;-80
2022/05/11 03:45:04;;;;;;;;;;;19.10;65.70;;;;;;5054603;28;19935;-80
2022/05/11 03:47:31;;;;;;;;;;;19.00;65.70;;;;;;5059275;28;19936;-80
2022/05/11 03:49:58;;;;;;;;;;;19.00;65.80;;;;;;5057382;28;19928;-80
2022/05/11 03:52:24;;;;;;;;;;;19.00;65.90;;;;;;5053968;28;19933;-80
2022/05/11 03:54:52;;;;;;;;;;;19.00;65.90;;;;;;5049171;28;19929;-80
2022/05/11 03:57:19;;;;;;;;;;;18.90;66.00;;;;;;5046554;28;19932;-81
2022/05/11 03:59:45;;;;;;;;;;;18.90;66.00;;;;;;5060061;28;19928;-80
2022/05/11 04:02:12;;;;;;;;;;;18.90;66.10;;;;;;5049537;28;19933;-80
2022/05/11 04:04:38;;;;;;;;;;;18.90;66.20;;;;;;5053187;28;19955;-80
2022/05/11 04:07:05;;;;;;;;;;;18.80;66.20;;;;;;5054566;28;20681;-80
2022/05/11 04:09:31;;;;;;;;;;;18.80;66.20;;;;;;5055188;28;19932;-80
2022/05/11 04:11:59;;;;;;;;;;;18.80;66.30;;;;;;5058406;28;19932;-80
2022/05/11 04:14:26;;;;;;;;;;;18.70;66.30;;;;;;5055927;28;19939;-80
2022/05/11 04:16:54;;;;;;;;;;;18.80;66.50;;;;;;5056701;28;20432;-80
2022/05/11 04:19:20;;;;;;;;;;;18.70;66.50;;;;;;5056552;28;19928;-81
2022/05/11 04:21:47;;;;;;;;;;;18.70;66.60;;;;;;5053649;28;21073;-81
2022/05/11 04:24:13;;;;;;;;;;;18.70;66.70;;;;;;5055386;28;20463;-81
2022/05/11 04:26:40;;;;;;;;;;;18.60;66.70;;;;;;5053318;28;19935;-81
2022/05/11 04:29:08;;;;;;;;;;;18.60;67.50;;;;;;5056371;28;19928;-81
2022/05/11 04:31:34;;;;;;;;;;;18.60;66.90;;;;;;5062157;28;19935;-81
2022/05/11 04:34:01;;;;;;;;;;;18.60;67.70;;;;;;5064317;28;19928;-81
2022/05/11 04:36:28;;;;;;;;;;;18.60;67.00;;;;;;5055872;28;19935;-81
2022/05/11 04:38:54;;;;;;;;;;;18.50;66.90;;;;;;5055228;28;20031;-81
2022/05/11 04:41:21;;;;;;;;;;;18.50;67.00;;;;;;5053360;28;19929;-80
2022/05/11 04:43:48;;;;;;;;;;;18.50;67.10;;;;;;5050339;28;19928;-80
2022/05/11 04:46:16;;;;;;;;;;;18.50;67.20;;;;;;5051077;28;19928;-80
2022/05/11 04:48:44;;;;;;;;;;;18.50;67.30;;;;;;5056466;28;19935;-80
2022/05/11 04:51:11;;;;;;;;;;;18.40;67.30;;;;;;5054065;28;19986;-80
2022/05/11 04:53:38;;;;;;;;;;;18.40;67.30;;;;;;5052505;28;19943;-80
2022/05/11 04:56:05;;;;;;;;;;;18.40;67.40;;;;;;5052722;28;19929;-79
2022/05/11 04:58:32;;;;;;;;;;;18.40;67.70;;;;;;5054768;28;19956;-79
2022/05/11 05:00:58;;;;;;;;;;;18.20;69.50;;;;;;5052844;28;20515;-79
2022/05/11 05:03:26;;;;;;;;;;;18.10;69.80;;;;;;5060308;28;19928;-79
2022/05/11 05:05:53;;;;;;;;;;;18.00;69.90;;;;;;5057038;28;19928;-80
2022/05/11 05:08:19;;;;;;;;;;;18.00;70.10;;;;;;5056924;28;19932;-79
2022/05/11 05:10:46;;;;;;;;;;;18.00;70.20;;;;;;5053035;28;19932;-80
2022/05/11 05:13:13;;;;;;;;;;;18.00;70.20;;;;;;5056414;28;19929;-79
2022/05/11 05:15:40;;;;;;;;;;;18.00;70.20;;;;;;5053882;28;19951;-80
2022/05/11 05:18:07;;;;;;;;;;;18.00;70.20;;;;;;5049849;28;20374;-79
2022/05/11 05:20:35;;;;;;;;;;;18.00;70.10;;;;;;5051746;28;20045;-78
2022/05/11 05:23:02;;;;;;;;;;;17.90;70.10;;;;;;5057436;28;19932;-78
2022/05/11 05:25:29;;;;;;;;;;;18.00;70.20;;;;;;5048822;28;20635;-78
2022/05/11 05:31:04;;;;;;;;;;;18.00;70.20;;;;;;5057254;28;19939;-78
2022/05/11 05:33:27;;;;;;;;;;;18.00;70.30;;;;;;5051927;28;20710;-78
2022/05/11 05:35:55;;;;;;;;;;;17.90;70.30;;;;;;5051598;28;19933;-78
2022/05/11 05:38:22;;;;;;;;;;;17.90;70.30;;;;;;5051356;28;19929;-79
2022/05/11 05:40:48;;;;;;;;;;;18.00;70.50;;;;;;5049849;28;19935;-79
2022/05/11 05:43:15;;;;;;;;;;;17.90;70.40;;;;;;5051539;28;19954;-79
2022/05/11 05:45:41;;;;;;;;;;;17.90;70.50;;;;;;5053688;28;19932;-79
2022/05/11 05:48:08;;;;;;;;;;;17.90;70.40;;;;;;5052960;28;19939;-79
2022/05/11 05:50:35;;;;;;;;;;;18.00;70.50;;;;;;5045040;28;19929;-78
2022/05/11 05:53:03;;;;;;;;;;;18.00;70.70;;;;;;5054581;28;19925;-79
2022/05/11 05:55:29;;;;;;;;;;;18.00;70.60;;;;;;5055891;28;19955;-79
2022/05/11 05:57:56;;;;;;;;;;;18.00;70.70;;;;;;5052860;28;19963;-79
2022/05/11 06:00:23;;;;;;;;;;;18.00;70.90;;;;;;5047918;28;19956;-79
2022/05/11 06:02:50;;;;;;;;;;;18.00;70.80;;;;;;5054162;28;20546;-80
2022/05/11 06:05:16;;;;;;;;;;;18.00;70.80;;;;;;5048238;28;19939;-79
2022/05/11 06:07:43;;;;;;;;;;;18.00;70.90;;;;;;5051424;28;20514;-79
2022/05/11 06:10:11;;;;;;;;;;;18.00;70.80;;;;;;5055696;28;19997;-78
2022/05/11 06:12:37;;;;;;;;;;;18.00;70.80;;;;;;5054539;28;19929;-79
2022/05/11 06:15:05;;;;;;;;;;;18.00;70.90;;;;;;5047087;28;19932;-79
2022/05/11 06:17:32;;;;;;;;;;;18.00;70.80;;;;;;5034843;28;19950;-78
2022/05/11 06:19:59;;;;;;;;;;;18.10;71.10;;;;;;5027375;28;19929;-79
2022/05/11 06:22:25;;;;;;;;;;;18.10;71.20;;;;;;5037251;28;19936;-79
2022/05/11 06:24:52;;;;;;;;;;;18.10;71.30;;;;;;5032734;28;20622;-79
2022/05/11 06:27:21;;;;;;;;;;;18.10;71.30;;;;;;5042930;28;20377;-80
2022/05/11 06:29:51;;;;;;;;;;;18.10;70.90;;;;;;5040166;28;19939;-79
2022/05/11 06:32:18;;;;;;;;;;;18.10;71.20;;;;;;5048357;28;19929;-79
2022/05/11 06:34:45;;;;;;;;;;;18.10;71.40;;;;;;5057472;28;20015;-79
2022/05/11 06:37:12;;;;;;;;;;;18.20;71.10;;;;;;5061074;28;19932;-79
2022/05/11 06:39:38;;;;;;;;;;;18.10;71.20;;;;;;5060297;28;19959;-79
2022/05/11 06:42:06;;;;;;;;;;;18.10;71.00;;;;;;5056941;28;19940;-79
2022/05/11 06:44:34;;;;;;;;;;;18.20;71.30;;;;;;5053489;28;19971;-79
2022/05/11 06:47:01;;;;;;;;;;;18.20;71.60;;;;;;5057088;28;19929;-79
2022/05/11 06:49:27;;;;;;;;;;;18.20;71.20;;;;;;5054128;28;19937;-79
2022/05/11 06:51:54;;;;;;;;;;;18.30;71.20;;;;;;5050171;28;19928;-79
2022/05/11 06:59:53;;;;;;;;;;;18.30;71.40;;;;;;5060084;28;19931;-79
2022/05/11 07:02:20;;;;;;;;;;;18.30;71.30;;;;;;5054030;28;19940;-80
2022/05/11 07:04:48;;;;;;;;;;;18.30;71.30;;;;;;5063071;28;20050;-79
2022/05/11 07:07:15;;;;;;;;;;;18.40;71.30;;;;;;5058679;28;19940;-79
2022/05/11 07:09:42;;;;;;;;;;;18.40;71.30;;;;;;5061093;28;19932;-79
2022/05/11 07:12:18;;;;;;;;;;;18.40;71.50;;;;;;5055807;28;20742;-79
2022/05/11 07:14:44;;;;;;;;;;;18.40;71.20;;;;;;5054486;28;19935;-79
2022/05/11 07:17:13;;;;;;;;;;;18.50;71.20;;;;;;5059576;28;19929;-79
2022/05/11 07:19:43;;;;;;;;;;;18.50;71.10;;;;;;5051894;28;20000;-79
2022/05/11 07:22:10;;;;;;;;;;;18.50;71.10;;;;;;5060562;28;19929;-79
2022/05/11 07:24:36;;;;;;;;;;;18.60;71.20;;;;;;5055950;28;19928;-78
2022/05/11 07:27:03;;;;;;;;;;;18.60;71.20;;;;;;5058315;28;19929;-79
2022/05/11 07:29:30;;;;;;;;;;;18.60;71.10;;;;;;5060839;28;19975;-79
2022/05/11 07:31:56;;;;;;;;;;;18.60;71.10;;;;;;5055998;28;19929;-79
2022/05/11 07:34:24;;;;;;;;;;;18.70;71.10;;;;;;5057392;28;20682;-78
2022/05/11 07:36:54;;;;;;;;;;;18.70;71.00;;;;;;5051153;28;19925;-80
2022/05/11 07:39:21;;;;;;;;;;;18.70;71.00;;;;;;5052029;28;19928;-79
2022/05/11 07:41:48;;;;;;;;;;;18.80;70.90;;;;;;5050153;28;19929;-79
2022/05/11 07:44:15;;;;;;;;;;;18.80;70.80;;;;;;5054146;28;20026;-79
2022/05/11 07:46:42;;;;;;;;;;;18.80;70.60;;;;;;5052840;28;20675;-79
2022/05/11 07:49:09;;;;;;;;;;;18.80;70.70;;;;;;5048715;28;19936;-79
2022/05/11 07:51:37;;;;;;;;;;;18.90;70.60;;;;;;5051400;28;19933;-80
2022/05/11 07:54:04;;;;;;;;;;;18.90;70.50;;;;;;5056851;28;19928;-80
2022/05/11 08:01:59;;;;;;;;;;;19.10;70.30;;;;;;5050308;28;19935;-79
2022/05/11 08:04:26;;;;;;;;;;;19.10;70.20;;;;;;5055218;28;20439;-80
2022/05/11 08:06:54;;;;;;;;;;;19.10;70.10;;;;;;5048375;28;20379;-79
2022/05/11 08:09:21;;;;;;;;;;;19.10;70.00;;;;;;5053438;28;19936;-79
2022/05/11 08:11:48;;;;;;;;;;;19.20;70.00;;;;;;5052253;28;19929;-80
2022/05/11 08:14:15;;;;;;;;;;;19.30;70.00;;;;;;5049352;28;20058;-79
2022/05/11 08:16:41;;;;;;;;;;;19.30;69.70;;;;;;5049916;28;20568;-79
2022/05/11 08:19:08;;;;;;;;;;;19.30;69.40;;;;;;5053823;28;20388;-79
2022/05/11 08:21:36;;;;;;;;;;;19.30;69.40;;;;;;5057469;28;20331;-79
2022/05/11 08:24:04;;;;;;;;;;;19.40;69.30;;;;;;5055118;28;20250;-78
2022/05/11 08:26:30;;;;;;;;;;;19.40;69.20;;;;;;5048902;28;19983;-79
2022/05/11 08:28:57;;;;;;;;;;;19.50;69.20;;;;;;5055828;28;20277;-79
2022/05/11 08:34:07;;;;;;;;;;;19.60;69.20;;;;;;5052962;28;19982;-79
2022/05/11 08:36:34;;;;;;;;;;;19.60;69.10;;;;;;5054898;28;19932;-79
2022/05/11 08:39:01;;;;;;;;;;;19.70;68.90;;;;;;5054298;28;19935;-78
2022/05/11 08:41:32;;;;;;;;;;;19.70;68.90;;;;;;5048343;28;20010;-79
2022/05/11 08:44:01;;;;;;;;;;;19.80;68.90;;;;;;5051358;28;19928;-79
2022/05/11 08:46:34;;;;;;;;;;;19.80;68.60;;;;;;5057623;28;19993;-78
2022/05/11 08:49:01;;;;;;;;;;;19.90;68.60;;;;;;5046072;28;19928;-79
2022/05/11 08:51:32;;;;;;;;;;;20.00;68.40;;;;;;5050106;28;20112;-79
2022/05/11 08:54:07;;;;;;;;;;;20.00;68.30;;;;;;5051607;28;19935;-79
2022/05/11 08:56:35;;;;;;;;;;;20.00;68.20;;;;;;5047017;28;20476;-79
2022/05/11 08:59:02;;;;;;;;;;;20.10;68.00;;;;;;5055454;28;20346;-80
2022/05/11 09:01:31;;;;;;;;;;;20.10;67.80;;;;;;5054749;28;19929;-79
2022/05/11 09:04:00;;;;;;;;;;;20.20;67.70;;;;;;5055390;28;19928;-80
2022/05/11 09:06:27;;;;;;;;;;;20.20;67.40;;;;;;5052130;28;19979;-79
2022/05/11 09:08:54;;;;;;;;;;;20.30;67.20;;;;;;5058512;28;19941;-79
2022/05/11 09:11:24;;;;;;;;;;;20.40;67.10;;;;;;5047431;28;19929;-79
2022/05/11 09:13:52;;;;;;;;;;;20.40;66.90;;;;;;5047290;28;19928;-79
2022/05/11 09:16:20;;;;;;;;;;;20.50;66.80;;;;;;5048123;28;19928;-80
2022/05/11 09:18:47;;;;;;;;;;;20.50;66.50;;;;;;5050255;28;19929;-79
2022/05/11 09:21:25;;;;;;;;;;;20.60;66.50;;;;;;5055373;28;19970;-79
2022/05/11 09:24:01;;;;;;;;;;;20.70;66.40;;;;;;5049507;28;19928;-79
2022/05/11 09:26:30;;;;;;;;;;;20.70;66.00;;;;;;5048481;28;19929;-79
2022/05/11 09:29:08;;;;;;;;;;;20.80;65.80;;;;;;5048399;28;19940;-80
2022/05/11 09:31:35;;;;;;;;;;;20.90;65.70;;;;;;5051261;28;19932;-79
2022/05/11 09:34:04;;;;;;;;;;;20.90;65.20;;;;;;5055991;28;19936;-80
2022/05/11 09:36:36;;;;;;;;;;;21.00;65.00;;;;;;5057274;28;19936;-79
2022/05/11 09:39:05;;;;;;;;;;;21.10;64.80;;;;;;5057549;28;20051;-79
2022/05/11 09:41:33;;;;;;;;;;;21.10;64.40;;;;;;5057113;28;19936;-80
2022/05/11 09:44:16;;;;;;;;;;;21.20;64.40;;;;;;5055459;28;19928;-79
2022/05/11 09:46:43;;;;;;;;;;;21.30;64.00;;;;;;5057593;28;20344;-80
2022/05/11 09:49:13;;;;;;;;;;;21.40;63.60;;;;;;5048622;28;19940;-79
2022/05/11 09:51:43;;;;;;;;;;;21.40;63.20;;;;;;5050155;28;19929;-79
2022/05/11 09:54:20;;;;;;;;;;;21.50;63.00;;;;;;5057873;28;19933;-79
2022/05/11 09:56:52;;;;;;;;;;;21.60;62.60;;;;;;5058596;28;19940;-79
2022/05/11 09:59:22;;;;;;;;;;;21.60;62.40;;;;;;5061625;28;20443;-79
2022/05/11 10:01:50;;;;;;;;;;;21.70;62.20;;;;;;5062292;28;20613;-78
2022/05/11 10:04:17;;;;;;;;;;;21.80;61.90;;;;;;5061966;28;19939;-79
2022/05/11 10:06:48;;;;;;;;;;;21.90;61.70;;;;;;5062216;28;19937;-80
2022/05/11 10:09:15;;;;;;;;;;;22.00;61.50;;;;;;5056594;28;19984;-79
2022/05/11 10:11:45;;;;;;;;;;;22.00;61.00;;;;;;5053170;28;19958;-78
2022/05/11 10:22:36;;;;;;;;;;;22.30;60.60;;;;;;5054648;28;19974;-79
2022/05/11 10:25:08;;;;;;;;;;;22.50;60.00;;;;;;5050405;28;19932;-79
2022/05/11 10:27:39;;;;;;;;;;;22.50;59.90;;;;;;5057208;28;19931;-79
2022/05/11 10:30:09;;;;;;;;;;;22.60;59.70;;;;;;5061652;28;20819;-79
2022/05/11 10:32:42;;;;;;;;;;;22.70;59.60;;;;;;5052610;28;19929;-79
2022/05/11 10:35:12;;;;;;;;;;;22.70;59.40;;;;;;5052555;28;19932;-80
2022/05/11 10:37:43;;;;;;;;;;;22.80;59.20;;;;;;5054112;28;19932;-79
2022/05/11 10:40:15;;;;;;;;;;;22.90;59.10;;;;;;5058542;28;19928;-78
2022/05/11 10:42:46;;;;;;;;;;;23.00;58.70;;;;;;5053964;28;19928;-79
2022/05/11 10:45:17;;;;;;;;;;;23.00;58.50;;;;;;5061392;28;20301;-78
2022/05/11 10:47:53;;;;;;;;;;;23.10;58.40;;;;;;5056560;28;20056;-79
2022/05/11 10:50:22;;;;;;;;;;;23.20;58.40;;;;;;5058638;28;19955;-79
2022/05/11 10:53:01;;;;;;;;;;;23.30;58.30;;;;;;5060339;28;20344;-79
2022/05/11 10:55:29;;;;;;;;;;;23.30;58.10;;;;;;5055353;28;19966;-78
2022/05/11 10:58:01;;;;;;;;;;;23.40;57.90;;;;;;5055016;28;19928;-80
2022/05/11 11:00:29;;;;;;;;;;;23.50;57.70;;;;;;5052548;28;19994;-78
2022/05/11 11:03:14;;;;;;;;;;;23.50;57.60;;;;;;5054503;28;19928;-79
2022/05/11 11:07:11;;;;;;;;;;;23.60;57.40;;;;;;5054639;28;19933;-79
2022/05/11 11:08:44;;;;;;;;;;;23.70;57.00;;;;;;5057743;28;19986;-78
2022/05/11 11:11:15;;;;;;;;;;;23.80;56.80;;;;;;5058687;28;19928;-79
2022/05/11 11:13:47;;;;;;;;;;;23.80;56.30;;;;;;5059682;28;19936;-81
2022/05/11 11:16:14;;;;;;;;;;;24.00;56.40;;;;;;5058802;28;20617;-79
2022/05/11 11:18:42;;;;;;;;;;;24.00;55.80;;;;;;5059563;28;19928;-79
2022/05/11 11:21:11;;;;;;;;;;;24.10;55.90;;;;;;5059409;28;19928;-79
2022/05/11 11:23:39;;;;;;;;;;;24.10;55.40;;;;;;5052126;28;19936;-79
2022/05/11 11:26:07;;;;;;;;;;;24.20;55.00;;;;;;5050169;28;19943;-79
2022/05/11 11:28:34;;;;;;;;;;;24.30;54.90;;;;;;5054257;28;19935;-80
2022/05/11 11:31:20;;;;;;;;;;;24.30;54.80;;;;;;5061729;28;20044;-80
2022/05/11 11:34:05;;;;;;;;;;;24.40;54.70;;;;;;5050881;28;19939;-80
2022/05/11 11:36:34;;;;;;;;;;;24.50;54.70;;;;;;5051943;28;19928;-79
2022/05/11 11:39:01;;;;;;;;;;;24.50;54.40;;;;;;5056606;28;20655;-80
2022/05/11 11:41:29;;;;;;;;;;;24.60;54.10;;;;;;5055570;28;19932;-80
2022/05/11 11:43:57;;;;;;;;;;;24.70;53.90;;;;;;5052251;28;20066;-80
2022/05/11 11:46:31;;;;;;;;;;;24.70;54.00;;;;;;5055986;28;20003;-79
2022/05/11 11:49:03;;;;;;;;;;;24.80;54.00;;;;;;5050142;28;19950;-80
2022/05/11 11:51:51;;;;;;;;;;;24.80;53.90;;;;;;5058165;28;19974;-79
2022/05/11 11:54:27;;;;;;;;;;;24.90;53.80;;;;;;5060431;28;19933;-79
2022/05/11 11:56:54;;;;;;;;;;;25.00;53.60;;;;;;5054185;28;19932;-79
2022/05/11 11:59:35;;;;;;;;;;;25.00;53.30;;;;;;5061540;28;19990;-79
2022/05/11 12:02:06;;;;;;;;;;;25.10;53.20;;;;;;5057779;28;19929;-79
2022/05/11 12:04:33;;;;;;;;;;;25.10;53.00;;;;;;5055758;28;19928;-79
2022/05/11 12:15:20;;;;;;;;;;;25.40;52.30;;;;;;5047676;28;19936;-80
2022/05/11 12:17:47;;;;;;;;;;;25.50;52.40;;;;;;5054200;28;19939;-79
2022/05/11 12:20:17;;;;;;;;;;;25.50;52.00;;;;;;5054930;28;19932;-80
2022/05/11 12:22:47;;;;;;;;;;;25.60;51.70;;;;;;5056982;28;19932;-78
2022/05/11 12:25:20;;;;;;;;;;;25.60;51.80;;;;;;5047579;28;19928;-79
2022/05/11 12:27:47;;;;;;;;;;;25.70;51.80;;;;;;5054524;28;20364;-79
2022/05/11 12:30:17;;;;;;;;;;;25.70;51.50;;;;;;5055419;28;19928;-79
2022/05/11 12:32:49;;;;;;;;;;;25.80;51.50;;;;;;5053049;28;19932;-79
2022/05/11 12:35:18;;;;;;;;;;;25.80;51.70;;;;;;5051244;28;20381;-79
2022/05/11 12:37:53;;;;;;;;;;;25.90;51.60;;;;;;5052130;28;19932;-78
2022/05/11 12:40:21;;;;;;;;;;;25.90;51.30;;;;;;5052365;28;19935;-79
2022/05/11 12:42:48;;;;;;;;;;;26.00;50.90;;;;;;5050086;28;19928;-77
2022/05/11 12:45:16;;;;;;;;;;;26.10;50.90;;;;;;5049935;28;20403;-78
2022/05/11 12:47:45;;;;;;;;;;;26.10;50.30;;;;;;5054413;28;19938;-78
2022/05/11 12:50:16;;;;;;;;;;;26.20;50.20;;;;;;5050864;28;19978;-77
2022/05/11 12:52:42;;;;;;;;;;;26.20;50.10;;;;;;5052201;28;19928;-78
2022/05/11 12:55:10;;;;;;;;;;;26.30;49.70;;;;;;5054207;28;19939;-78
2022/05/11 12:57:38;;;;;;;;;;;26.30;49.30;;;;;;5054113;28;20388;-79
2022/05/11 13:00:11;;;;;;;;;;;26.40;49.40;;;;;;5061495;28;19928;-78
2022/05/11 13:02:41;;;;;;;;;;;26.40;49.30;;;;;;5051818;28;20023;-79
2022/05/11 13:05:09;;;;;;;;;;;26.50;49.50;;;;;;5049780;28;19940;-78
2022/05/11 13:07:47;;;;;;;;;;;26.50;49.20;;;;;;5055366;28;19935;-79
2022/05/11 13:10:17;;;;;;;;;;;26.50;49.10;;;;;;5060029;28;19928;-79
2022/05/11 13:12:45;;;;;;;;;;;26.60;49.20;;;;;;5054923;28;19932;-77
2022/05/11 13:15:12;;;;;;;;;;;26.70;49.00;;;;;;5053224;28;19978;-78
2022/05/11 13:17:41;;;;;;;;;;;26.70;48.90;;;;;;5049614;28;20393;-79
2022/05/11 13:20:12;;;;;;;;;;;26.80;48.30;;;;;;5058547;28;19939;-78
2022/05/11 13:22:39;;;;;;;;;;;26.80;48.60;;;;;;5056190;28;19935;-79
2022/05/11 13:25:08;;;;;;;;;;;26.90;48.70;;;;;;5053051;28;19928;-77
2022/05/11 13:27:38;;;;;;;;;;;26.90;48.80;;;;;;5056875;28;19929;-78
2022/05/11 13:30:16;;;;;;;;;;;27.00;48.60;;;;;;5055848;28;20366;-78
2022/05/11 13:32:45;;;;;;;;;;;27.10;48.30;;;;;;5058204;28;19928;-78
2022/05/11 13:35:20;;;;;;;;;;;27.10;48.20;;;;;;5056921;28;19932;-76
2022/05/11 13:37:57;;;;;;;;;;;27.20;48.10;;;;;;5059055;28;19932;-79
2022/05/11 13:40:35;;;;;;;;;;;27.20;47.90;;;;;;5050342;28;19936;-78
2022/05/11 13:43:13;;;;;;;;;;;27.20;47.70;;;;;;5049879;28;20560;-79
2022/05/11 13:45:52;;;;;;;;;;;27.30;47.40;;;;;;5059758;28;19970;-77
2022/05/11 13:48:22;;;;;;;;;;;27.40;47.30;;;;;;5057998;28;19932;-77
2022/05/11 13:50:49;;;;;;;;;;;27.40;47.30;;;;;;5058439;28;20337;-79
2022/05/11 13:53:21;;;;;;;;;;;27.50;47.40;;;;;;5054393;28;19935;-78
2022/05/11 13:55:59;;;;;;;;;;;27.50;47.00;;;;;;5053680;28;19940;-77
2022/05/11 13:58:32;;;;;;;;;;;27.60;46.50;;;;;;5059520;28;19929;-77
2022/05/11 14:00:59;;;;;;;;;;;27.70;46.50;;;;;;5053977;28;20361;-78
2022/05/11 14:03:31;;;;;;;;;;;27.70;46.10;;;;;;5061793;28;20403;-78
2022/05/11 14:05:58;;;;;;;;;;;27.80;45.80;;;;;;5058797;28;19951;-79
2022/05/11 14:08:25;;;;;;;;;;;27.80;45.80;;;;;;5061697;28;20362;-78
2022/05/11 14:10:53;;;;;;;;;;;27.90;45.90;;;;;;5057353;28;19936;-78
2022/05/11 14:13:19;;;;;;;;;;;27.90;45.70;;;;;;5049695;28;19968;-78
2022/05/11 14:15:48;;;;;;;;;;;28.00;45.40;;;;;;5056220;28;19929;-78
2022/05/11 14:18:19;;;;;;;;;;;28.00;45.30;;;;;;5052991;28;19954;-79
2022/05/11 14:20:46;;;;;;;;;;;28.10;44.50;;;;;;5056985;28;19988;-79
2022/05/11 14:23:12;;;;;;;;;;;28.10;44.20;;;;;;5050075;28;20280;-78
2022/05/11 14:25:39;;;;;;;;;;;28.20;44.30;;;;;;5058505;28;20452;-79
2022/05/11 14:28:05;;;;;;;;;;;28.30;44.70;;;;;;5057573;28;19939;-79
2022/05/11 14:30:33;;;;;;;;;;;28.30;44.00;;;;;;5053561;28;19933;-79
2022/05/11 14:33:01;;;;;;;;;;;28.40;43.70;;;;;;5057652;28;19944;-78
2022/05/11 14:35:28;;;;;;;;;;;28.40;43.80;;;;;;5052070;28;19936;-78
2022/05/11 14:37:55;;;;;;;;;;;28.50;43.50;;;;;;5055722;28;19929;-78
2022/05/11 14:40:23;;;;;;;;;;;28.50;43.00;;;;;;5050847;28;19936;-78
2022/05/11 14:42:50;;;;;;;;;;;28.50;42.70;;;;;;5057867;28;19939;-78
2022/05/11 14:45:17;;;;;;;;;;;28.60;42.90;;;;;;5054330;28;19936;-78
2022/05/11 14:47:46;;;;;;;;;;;28.70;42.60;;;;;;5057229;28;19936;-78
2022/05/11 14:50:17;;;;;;;;;;;29.00;36.30;;;;;;5059662;28;19928;-79
2022/05/11 14:52:43;;;;;;;;;;;29.40;37.80;;;;;;5059682;28;20035;-79
2022/05/11 14:55:10;;;;;;;;;;;29.70;37.80;;;;;;5055559;28;20565;-79
2022/05/11 15:03:05;;;;;;;;;;;30.20;38.30;;;;;;5058620;28;19935;-79
2022/05/11 15:05:33;;;;;;;;;;;30.30;38.20;;;;;;5058016;28;19935;-78
2022/05/11 15:08:00;;;;;;;;;;;30.40;38.20;;;;;;5056843;28;19940;-78
2022/05/11 15:10:26;;;;;;;;;;;30.50;38.30;;;;;;5060710;28;19935;-79